sensor_id;sensor_type;location;lat;lon;timestamp;pressure;altitude;pressure_sealevel;temperature;humidity
60089;BME280;45961;53.574;55.878;2022-07-06T00:00:42;99579.63;;;14.02;79.02
60089;BME280;45961;53.574;55.878;2022-07-06T00:01:44;99572.75;;;13.98;79.10
60089;BME280;45961;53.574;55.878;2022-07-06T00:02:45;99574.41;;;14.02;79.18
60089;BME280;45961;53.574;55.878;2022-07-06T00:03:46;99589.22;;;14.00;79.83
60089;BME280;45961;53.574;55.878;2022-07-06T00:04:48;99582.31;;;13.97;79.68
60089;BME280;45961;53.574;55.878;2022-07-06T00:05:49;99590.03;;;14.02;79.71
60089;BME280;45961;53.574;55.878;2022-07-06T00:06:51;99586.53;;;14.03;79.50
60089;BME280;45961;53.574;55.878;2022-07-06T00:07:51;99590.88;;;14.04;79.41
60089;BME280;45961;53.574;55.878;2022-07-06T00:08:52;99595.25;;;14.02;79.35
60089;BME280;45961;53.574;55.878;2022-07-06T00:09:53;99600.41;;;14.05;79.24
60089;BME280;45961;53.574;55.878;2022-07-06T00:10:55;99602.13;;;14.06;79.00
60089;BME280;45961;53.574;55.878;2022-07-06T00:11:56;99604.75;;;14.04;79.50
60089;BME280;45961;53.574;55.878;2022-07-06T00:12:56;99609.91;;;14.07;79.68
60089;BME280;45961;53.574;55.878;2022-07-06T00:13:58;99595.28;;;14.00;79.76
60089;BME280;45961;53.574;55.878;2022-07-06T00:14:59;99603.09;;;14.00;79.61
60089;BME280;45961;53.574;55.878;2022-07-06T00:16:00;99591.06;;;13.90;79.18
60089;BME280;45961;53.574;55.878;2022-07-06T00:17:01;99596.13;;;14.01;78.75
60089;BME280;45961;53.574;55.878;2022-07-06T00:18:02;99594.38;;;14.01;79.11
60089;BME280;45961;53.574;55.878;2022-07-06T00:19:06;99590.09;;;13.97;79.28
60089;BME280;45961;53.574;55.878;2022-07-06T00:20:08;99596.06;;;14.05;78.94
60089;BME280;45961;53.574;55.878;2022-07-06T00:21:09;99601.25;;;14.05;78.90
60089;BME280;45961;53.574;55.878;2022-07-06T00:22:10;99593.53;;;14.01;78.93
60089;BME280;45961;53.574;55.878;2022-07-06T00:23:11;99589.16;;;14.03;78.53
60089;BME280;45961;53.574;55.878;2022-07-06T00:24:12;99587.44;;;14.02;78.75
60089;BME280;45961;53.574;55.878;2022-07-06T00:25:13;99594.28;;;14.09;78.37
60089;BME280;45961;53.574;55.878;2022-07-06T00:26:14;99591.66;;;14.09;78.08
60089;BME280;45961;53.574;55.878;2022-07-06T00:27:17;99594.28;;;14.09;77.99
60089;BME280;45961;53.574;55.878;2022-07-06T00:28:18;99597.75;;;14.08;78.05
60089;BME280;45961;53.574;55.878;2022-07-06T00:29:19;99595.22;;;14.03;77.70
60089;BME280;45961;53.574;55.878;2022-07-06T00:30:20;99598.59;;;14.10;77.77
60089;BME280;45961;53.574;55.878;2022-07-06T00:31:21;99604.72;;;14.07;77.39
60089;BME280;45961;53.574;55.878;2022-07-06T00:32:22;99600.44;;;14.03;77.26
60089;BME280;45961;53.574;55.878;2022-07-06T00:33:24;99604.72;;;14.07;77.23
60089;BME280;45961;53.574;55.878;2022-07-06T00:34:25;99609.00;;;14.10;77.44
60089;BME280;45961;53.574;55.878;2022-07-06T00:35:26;99600.38;;;14.08;77.63
60089;BME280;45961;53.574;55.878;2022-07-06T00:36:27;99594.47;;;13.97;78.27
60089;BME280;45961;53.574;55.878;2022-07-06T00:37:28;99607.34;;;14.04;78.09
60089;BME280;45961;53.574;55.878;2022-07-06T00:38:29;99603.88;;;14.07;78.20
60089;BME280;45961;53.574;55.878;2022-07-06T00:39:30;99609.91;;;14.07;78.23
60089;BME280;45961;53.574;55.878;2022-07-06T00:40:31;99603.00;;;14.05;78.43
60089;BME280;45961;53.574;55.878;2022-07-06T00:41:33;99597.03;;;14.00;78.25
60089;BME280;45961;53.574;55.878;2022-07-06T00:42:47;99598.63;;;14.08;78.62
60089;BME280;45961;53.574;55.878;2022-07-06T00:43:56;99602.13;;;14.06;78.54
60089;BME280;45961;53.574;55.878;2022-07-06T00:44:57;99608.13;;;14.10;78.76
60089;BME280;45961;53.574;55.878;2022-07-06T00:45:58;99608.22;;;14.05;78.64
60089;BME280;45961;53.574;55.878;2022-07-06T00:47:00;99610.78;;;14.08;78.34
60089;BME280;45961;53.574;55.878;2022-07-06T00:48:01;99603.91;;;14.04;77.85
60089;BME280;45961;53.574;55.878;2022-07-06T00:49:03;99610.78;;;14.08;78.07
60089;BME280;45961;53.574;55.878;2022-07-06T00:50:06;99609.94;;;14.06;78.13
60089;BME280;45961;53.574;55.878;2022-07-06T00:51:28;99613.41;;;14.05;77.96
60089;BME280;45961;53.574;55.878;2022-07-06T00:52:30;99609.13;;;14.01;78.07
60089;BME280;45961;53.574;55.878;2022-07-06T00:53:31;99600.56;;;13.96;77.85
60089;BME280;45961;53.574;55.878;2022-07-06T00:54:32;99613.44;;;14.02;77.77
60089;BME280;45961;53.574;55.878;2022-07-06T00:55:37;99610.88;;;14.00;77.68
60089;BME280;45961;53.574;55.878;2022-07-06T00:56:42;99610.81;;;14.05;77.80
60089;BME280;45961;53.574;55.878;2022-07-06T00:57:44;99607.34;;;14.03;77.73
60089;BME280;45961;53.574;55.878;2022-07-06T00:58:44;99605.66;;;14.03;77.48
60089;BME280;45961;53.574;55.878;2022-07-06T00:59:46;99604.81;;;14.00;77.52
60089;BME280;45961;53.574;55.878;2022-07-06T01:00:47;99608.25;;;14.02;77.22
60089;BME280;45961;53.574;55.878;2022-07-06T01:01:48;99596.13;;;14.01;77.12
60089;BME280;45961;53.574;55.878;2022-07-06T01:02:49;99612.53;;;14.07;77.00
60089;BME280;45961;53.574;55.878;2022-07-06T01:03:50;99610.75;;;14.10;77.10
60089;BME280;45961;53.574;55.878;2022-07-06T01:04:51;99595.28;;;14.00;76.97
60089;BME280;45961;53.574;55.878;2022-07-06T01:05:53;99620.38;;;14.03;77.23
60089;BME280;45961;53.574;55.878;2022-07-06T01:06:56;99607.34;;;14.03;77.13
60089;BME280;45961;53.574;55.878;2022-07-06T01:07:57;99613.44;;;14.02;77.29
60089;BME280;45961;53.574;55.878;2022-07-06T01:08:59;99611.72;;;14.04;77.64
60089;BME280;45961;53.574;55.878;2022-07-06T01:10:04;99609.88;;;14.09;77.57
60089;BME280;45961;53.574;55.878;2022-07-06T01:11:06;99605.53;;;14.11;77.62
60089;BME280;45961;53.574;55.878;2022-07-06T01:12:07;99604.72;;;14.06;78.03
60089;BME280;45961;53.574;55.878;2022-07-06T01:13:09;99602.00;;;14.14;77.86
60089;BME280;45961;53.574;55.878;2022-07-06T01:14:12;99605.53;;;14.11;77.79
60089;BME280;45961;53.574;55.878;2022-07-06T01:15:23;99600.41;;;14.05;77.41
60089;BME280;45961;53.574;55.878;2022-07-06T01:16:25;99602.16;;;14.03;77.42
60089;BME280;45961;53.574;55.878;2022-07-06T01:17:26;99602.97;;;14.08;77.18
60089;BME280;45961;53.574;55.878;2022-07-06T01:18:27;99601.22;;;14.08;77.26
60089;BME280;45961;53.574;55.878;2022-07-06T01:19:28;99603.16;;;13.94;77.98
60089;BME280;45961;53.574;55.878;2022-07-06T01:20:29;99600.47;;;14.00;78.21
60089;BME280;45961;53.574;55.878;2022-07-06T01:21:31;99600.47;;;14.00;78.31
60089;BME280;45961;53.574;55.878;2022-07-06T01:22:32;99615.16;;;14.04;78.21
60089;BME280;45961;53.574;55.878;2022-07-06T01:23:33;99602.28;;;13.95;79.22
60089;BME280;45961;53.574;55.878;2022-07-06T01:24:39;99594.50;;;13.94;79.35
60089;BME280;45961;53.574;55.878;2022-07-06T01:25:40;99606.63;;;13.95;79.67
60089;BME280;45961;53.574;55.878;2022-07-06T01:26:41;99607.28;;;14.09;79.55
60089;BME280;45961;53.574;55.878;2022-07-06T01:27:42;99604.66;;;14.11;79.24
60089;BME280;45961;53.574;55.878;2022-07-06T01:28:43;99597.88;;;14.00;79.26
60089;BME280;45961;53.574;55.878;2022-07-06T01:29:44;99603.72;;;14.15;78.94
60089;BME280;45961;53.574;55.878;2022-07-06T01:30:45;99595.78;;;14.22;79.05
60089;BME280;45961;53.574;55.878;2022-07-06T01:31:47;99594.00;;;14.27;78.95
60089;BME280;45961;53.574;55.878;2022-07-06T01:32:50;99594.72;;;14.36;78.88
60089;BME280;45961;53.574;55.878;2022-07-06T01:33:53;99600.69;;;14.42;78.88
60089;BME280;45961;53.574;55.878;2022-07-06T01:34:55;99592.00;;;14.43;78.82
60089;BME280;45961;53.574;55.878;2022-07-06T01:35:57;99593.63;;;14.52;78.86
60089;BME280;45961;53.574;55.878;2022-07-06T01:36:58;99595.97;;;14.66;78.89
60089;BME280;45961;53.574;55.878;2022-07-06T01:37:59;99589.28;;;14.99;78.23
60089;BME280;45961;53.574;55.878;2022-07-06T01:39:00;99584.56;;;15.18;77.81
60089;BME280;45961;53.574;55.878;2022-07-06T01:40:02;99592.84;;;15.38;77.38
60089;BME280;45961;53.574;55.878;2022-07-06T01:41:05;99598.09;;;15.78;76.10
60089;BME280;45961;53.574;55.878;2022-07-06T01:42:06;99589.78;;;16.00;75.14
60089;BME280;45961;53.574;55.878;2022-07-06T01:43:07;99590.97;;;15.87;74.80
60089;BME280;45961;53.574;55.878;2022-07-06T01:44:09;99589.94;;;15.94;74.38
60089;BME280;45961;53.574;55.878;2022-07-06T01:45:11;99596.97;;;15.90;74.72
60089;BME280;45961;53.574;55.878;2022-07-06T01:46:12;99597.91;;;15.88;74.06
60089;BME280;45961;53.574;55.878;2022-07-06T01:47:14;99593.50;;;15.90;74.16
60089;BME280;45961;53.574;55.878;2022-07-06T01:48:14;99593.47;;;15.91;74.55
60089;BME280;45961;53.574;55.878;2022-07-06T01:49:16;99598.69;;;15.93;74.73
60089;BME280;45961;53.574;55.878;2022-07-06T01:50:17;99602.31;;;15.86;74.79
60089;BME280;45961;53.574;55.878;2022-07-06T01:51:22;99602.41;;;15.81;75.42
60089;BME280;45961;53.574;55.878;2022-07-06T01:52:23;99605.03;;;15.79;75.14
60089;BME280;45961;53.574;55.878;2022-07-06T01:53:24;99585.97;;;15.77;74.92
60089;BME280;45961;53.574;55.878;2022-07-06T01:54:25;99580.25;;;15.59;74.20
60089;BME280;45961;53.574;55.878;2022-07-06T01:55:26;99610.59;;;15.64;74.10
60089;BME280;45961;53.574;55.878;2022-07-06T01:56:27;99611.38;;;15.69;74.71
60089;BME280;45961;53.574;55.878;2022-07-06T01:57:33;99601.78;;;15.70;75.13
60089;BME280;45961;53.574;55.878;2022-07-06T01:58:34;99603.47;;;15.72;75.78
60089;BME280;45961;53.574;55.878;2022-07-06T01:59:35;99600.16;;;15.64;76.54
60089;BME280;45961;53.574;55.878;2022-07-06T02:00:36;99601.63;;;15.77;76.34
60089;BME280;45961;53.574;55.878;2022-07-06T02:01:37;99596.13;;;15.90;76.24
60089;BME280;45961;53.574;55.878;2022-07-06T02:02:38;99594.88;;;16.06;75.49
60089;BME280;45961;53.574;55.878;2022-07-06T02:03:40;99599.91;;;16.14;75.07
60089;BME280;45961;53.574;55.878;2022-07-06T02:04:42;99608.75;;;16.45;74.40
60089;BME280;45961;53.574;55.878;2022-07-06T02:05:43;99606.41;;;16.69;73.66
60089;BME280;45961;53.574;55.878;2022-07-06T02:06:45;99606.19;;;17.11;73.13
60089;BME280;45961;53.574;55.878;2022-07-06T02:07:47;99595.88;;;17.36;71.55
60089;BME280;45961;53.574;55.878;2022-07-06T02:08:48;99586.09;;;17.72;71.05
60089;BME280;45961;53.574;55.878;2022-07-06T02:09:49;99586.19;;;17.98;69.16
60089;BME280;45961;53.574;55.878;2022-07-06T02:10:50;99584.28;;;18.04;68.16
60089;BME280;45961;53.574;55.878;2022-07-06T02:11:53;99590.75;;;17.92;68.05
60089;BME280;45961;53.574;55.878;2022-07-06T02:12:54;99589.13;;;17.88;68.05
60089;BME280;45961;53.574;55.878;2022-07-06T02:13:55;99592.31;;;17.68;68.73
60089;BME280;45961;53.574;55.878;2022-07-06T02:14:57;99583.84;;;17.60;68.59
60089;BME280;45961;53.574;55.878;2022-07-06T02:15:58;99587.75;;;17.76;68.63
60089;BME280;45961;53.574;55.878;2022-07-06T02:17:00;99585.13;;;17.76;69.10
60089;BME280;45961;53.574;55.878;2022-07-06T02:18:01;99590.66;;;17.95;68.84
60089;BME280;45961;53.574;55.878;2022-07-06T02:19:02;99594.72;;;18.05;68.40
60089;BME280;45961;53.574;55.878;2022-07-06T02:20:04;99588.09;;;18.21;67.93
60089;BME280;45961;53.574;55.878;2022-07-06T02:21:05;99582.13;;;18.69;66.71
60089;BME280;45961;53.574;55.878;2022-07-06T02:22:06;99588.00;;;19.01;64.71
60089;BME280;45961;53.574;55.878;2022-07-06T02:23:07;99586.44;;;19.20;63.91
60089;BME280;45961;53.574;55.878;2022-07-06T02:24:08;99583.47;;;19.06;63.20
60089;BME280;45961;53.574;55.878;2022-07-06T02:25:09;99575.50;;;18.84;63.59
60089;BME280;45961;53.574;55.878;2022-07-06T02:26:11;99589.69;;;18.79;64.22
60089;BME280;45961;53.574;55.878;2022-07-06T02:27:14;99583.75;;;18.73;64.71
60089;BME280;45961;53.574;55.878;2022-07-06T02:28:16;99595.19;;;18.71;64.70
60089;BME280;45961;53.574;55.878;2022-07-06T02:29:17;99594.06;;;18.52;64.49
60089;BME280;45961;53.574;55.878;2022-07-06T02:30:18;99602.25;;;18.42;64.25
60089;BME280;45961;53.574;55.878;2022-07-06T02:31:20;99592.94;;;18.34;64.37
60089;BME280;45961;53.574;55.878;2022-07-06T02:32:22;99593.94;;;18.30;64.81
60089;BME280;45961;53.574;55.878;2022-07-06T02:33:24;99588.19;;;18.18;64.21
60089;BME280;45961;53.574;55.878;2022-07-06T02:34:25;99598.97;;;18.09;64.59
60089;BME280;45961;53.574;55.878;2022-07-06T02:35:27;99594.19;;;17.94;66.25
60089;BME280;45961;53.574;55.878;2022-07-06T02:36:29;99598.97;;;17.81;65.13
60089;BME280;45961;53.574;55.878;2022-07-06T02:37:30;99573.72;;;17.49;65.15
60089;BME280;45961;53.574;55.878;2022-07-06T02:38:31;99589.84;;;17.63;65.10
60089;BME280;45961;53.574;55.878;2022-07-06T02:39:33;99598.41;;;17.68;65.80
60089;BME280;45961;53.574;55.878;2022-07-06T02:40:34;99586.06;;;17.73;66.85
60089;BME280;45961;53.574;55.878;2022-07-06T02:41:35;99583.53;;;17.70;67.30
60089;BME280;45961;53.574;55.878;2022-07-06T02:42:36;99585.03;;;17.49;67.31
60089;BME280;45961;53.574;55.878;2022-07-06T02:43:38;99587.31;;;17.60;67.24
60089;BME280;45961;53.574;55.878;2022-07-06T02:44:40;99599.69;;;17.55;67.76
60089;BME280;45961;53.574;55.878;2022-07-06T02:45:59;99591.34;;;17.42;67.98
60089;BME280;45961;53.574;55.878;2022-07-06T02:47:01;99588.94;;;17.35;67.90
60089;BME280;45961;53.574;55.878;2022-07-06T02:48:02;99596.78;;;17.35;67.41
60089;BME280;45961;53.574;55.878;2022-07-06T02:49:04;99594.13;;;17.36;67.09
60089;BME280;45961;53.574;55.878;2022-07-06T02:50:06;99565.84;;;17.19;66.81
60089;BME280;45961;53.574;55.878;2022-07-06T02:51:07;99588.59;;;17.47;67.66
60089;BME280;45961;53.574;55.878;2022-07-06T02:52:08;99594.03;;;17.39;67.10
60089;BME280;45961;53.574;55.878;2022-07-06T02:53:09;99579.47;;;17.31;66.92
60089;BME280;45961;53.574;55.878;2022-07-06T02:54:11;99584.28;;;17.44;67.25
60089;BME280;45961;53.574;55.878;2022-07-06T02:55:12;99585.19;;;17.43;67.53
60089;BME280;45961;53.574;55.878;2022-07-06T02:56:14;99585.03;;;17.49;67.04
60089;BME280;45961;53.574;55.878;2022-07-06T02:57:16;99584.13;;;17.50;67.02
60089;BME280;45961;53.574;55.878;2022-07-06T02:58:18;99577.00;;;17.56;66.99
60089;BME280;45961;53.574;55.878;2022-07-06T02:59:19;99581.38;;;17.55;66.47
60089;BME280;45961;53.574;55.878;2022-07-06T03:00:21;99577.34;;;17.43;66.76
60089;BME280;45961;53.574;55.878;2022-07-06T03:01:22;99582.19;;;17.57;66.76
60089;BME280;45961;53.574;55.878;2022-07-06T03:02:23;99579.59;;;17.56;66.54
60089;BME280;45961;53.574;55.878;2022-07-06T03:03:24;99581.38;;;17.55;66.44
60089;BME280;45961;53.574;55.878;2022-07-06T03:04:27;99569.28;;;17.51;66.76
60089;BME280;45961;53.574;55.878;2022-07-06T03:05:28;99572.47;;;17.61;66.25
60089;BME280;45961;53.574;55.878;2022-07-06T03:06:30;99580.56;;;17.53;66.27
60089;BME280;45961;53.574;55.878;2022-07-06T03:07:31;99576.06;;;17.57;66.64
60089;BME280;45961;53.574;55.878;2022-07-06T03:08:33;99572.88;;;17.47;66.85
60089;BME280;45961;53.574;55.878;2022-07-06T03:09:36;99567.22;;;17.61;67.01
60089;BME280;45961;53.574;55.878;2022-07-06T03:10:37;99562.91;;;17.60;66.97
60089;BME280;45961;53.574;55.878;2022-07-06T03:11:38;99571.63;;;17.60;66.59
60089;BME280;45961;53.574;55.878;2022-07-06T03:12:39;99573.06;;;17.70;66.65
60089;BME280;45961;53.574;55.878;2022-07-06T03:13:41;99560.53;;;17.82;66.75
60089;BME280;45961;53.574;55.878;2022-07-06T03:14:42;99573.19;;;17.95;66.97
60089;BME280;45961;53.574;55.878;2022-07-06T03:15:43;99568.09;;;17.91;67.24
60089;BME280;45961;53.574;55.878;2022-07-06T03:16:44;99568.19;;;17.88;67.37
60089;BME280;45961;53.574;55.878;2022-07-06T03:17:45;99570.88;;;17.86;66.29
60089;BME280;45961;53.574;55.878;2022-07-06T03:18:47;99573.25;;;17.94;66.44
60089;BME280;45961;53.574;55.878;2022-07-06T03:19:48;99530.88;;;17.81;66.89
60089;BME280;45961;53.574;55.878;2022-07-06T03:20:50;99563.53;;;17.97;66.23
60089;BME280;45961;53.574;55.878;2022-07-06T03:21:52;99564.63;;;17.90;65.73
60089;BME280;45961;53.574;55.878;2022-07-06T03:22:54;99557.72;;;17.88;66.23
60089;BME280;45961;53.574;55.878;2022-07-06T03:23:55;99557.44;;;17.97;66.60
60089;BME280;45961;53.574;55.878;2022-07-06T03:24:56;99563.91;;;18.13;66.04
60089;BME280;45961;53.574;55.878;2022-07-06T03:25:57;99561.22;;;18.15;66.00
60089;BME280;45961;53.574;55.878;2022-07-06T03:26:58;99561.75;;;18.26;65.92
60089;BME280;45961;53.574;55.878;2022-07-06T03:27:59;99568.44;;;18.35;65.33
60089;BME280;45961;53.574;55.878;2022-07-06T03:29:00;99561.44;;;18.35;65.31
60089;BME280;45961;53.574;55.878;2022-07-06T03:30:02;99563.97;;;18.37;65.88
60089;BME280;45961;53.574;55.878;2022-07-06T03:31:04;99564.88;;;18.37;65.92
60089;BME280;45961;53.574;55.878;2022-07-06T03:32:06;99563.97;;;18.37;66.36
60089;BME280;45961;53.574;55.878;2022-07-06T03:33:07;99567.53;;;18.36;66.47
60089;BME280;45961;53.574;55.878;2022-07-06T03:34:08;99571.22;;;18.30;65.92
60089;BME280;45961;53.574;55.878;2022-07-06T03:35:10;99571.41;;;18.24;65.41
60089;BME280;45961;53.574;55.878;2022-07-06T03:36:12;99567.41;;;18.39;64.86
60089;BME280;45961;53.574;55.878;2022-07-06T03:37:14;99559.56;;;18.39;64.63
60089;BME280;45961;53.574;55.878;2022-07-06T03:38:16;99574.13;;;18.47;65.31
60089;BME280;45961;53.574;55.878;2022-07-06T03:39:17;99572.16;;;18.54;65.00
60089;BME280;45961;53.574;55.878;2022-07-06T03:40:18;99542.41;;;18.55;65.14
60089;BME280;45961;53.574;55.878;2022-07-06T03:41:21;99556.16;;;18.62;65.03
60089;BME280;45961;53.574;55.878;2022-07-06T03:42:22;99566.94;;;18.79;64.77
60089;BME280;45961;53.574;55.878;2022-07-06T03:43:24;99567.44;;;18.64;64.95
60089;BME280;45961;53.574;55.878;2022-07-06T03:44:27;99566.00;;;18.55;64.00
60089;BME280;45961;53.574;55.878;2022-07-06T03:45:29;99571.34;;;18.52;63.97
60089;BME280;45961;53.574;55.878;2022-07-06T03:46:32;99578.44;;;18.48;64.00
60089;BME280;45961;53.574;55.878;2022-07-06T03:47:34;99562.38;;;18.59;64.17
60089;BME280;45961;53.574;55.878;2022-07-06T03:48:36;99567.97;;;18.75;63.44
60089;BME280;45961;53.574;55.878;2022-07-06T03:49:39;99549.63;;;18.48;62.91
60089;BME280;45961;53.574;55.878;2022-07-06T03:50:43;99572.47;;;18.71;62.53
60089;BME280;45961;53.574;55.878;2022-07-06T03:51:45;99560.78;;;18.80;62.38
60089;BME280;45961;53.574;55.878;2022-07-06T03:52:46;99566.59;;;18.90;61.89
60089;BME280;45961;53.574;55.878;2022-07-06T03:53:49;99576.69;;;18.76;62.40
60089;BME280;45961;53.574;55.878;2022-07-06T03:54:50;99551.72;;;18.64;62.27
60089;BME280;45961;53.574;55.878;2022-07-06T03:55:56;99560.16;;;18.73;62.25
60089;BME280;45961;53.574;55.878;2022-07-06T03:57:16;99554.38;;;19.12;61.79
60089;BME280;45961;53.574;55.878;2022-07-06T03:58:18;99562.50;;;19.30;61.64
60089;BME280;45961;53.574;55.878;2022-07-06T03:59:19;99572.19;;;19.28;60.52
60089;BME280;45961;53.574;55.878;2022-07-06T04:00:20;99577.84;;;19.40;61.29
60089;BME280;45961;53.574;55.878;2022-07-06T04:01:29;99574.28;;;19.41;59.66
60089;BME280;45961;53.574;55.878;2022-07-06T04:02:32;99551.59;;;19.40;59.06
60089;BME280;45961;53.574;55.878;2022-07-06T04:03:33;99563.97;;;19.60;59.28
60089;BME280;45961;53.574;55.878;2022-07-06T04:04:34;99566.69;;;19.57;58.70
60089;BME280;45961;53.574;55.878;2022-07-06T04:05:36;99559.97;;;19.73;58.32
60089;BME280;45961;53.574;55.878;2022-07-06T04:06:37;99566.31;;;19.90;58.00
60089;BME280;45961;53.574;55.878;2022-07-06T04:07:58;99560.28;;;20.32;57.41
60089;BME280;45961;53.574;55.878;2022-07-06T04:09:07;99566.56;;;20.50;57.12
60089;BME280;45961;53.574;55.878;2022-07-06T04:10:08;99558.22;;;20.60;56.27
60089;BME280;45961;53.574;55.878;2022-07-06T04:11:09;99562.34;;;20.86;56.16
60089;BME280;45961;53.574;55.878;2022-07-06T04:12:10;99548.72;;;20.97;55.32
60089;BME280;45961;53.574;55.878;2022-07-06T04:13:12;99544.06;;;21.43;56.25
60089;BME280;45961;53.574;55.878;2022-07-06T04:14:13;99550.72;;;21.50;54.69
60089;BME280;45961;53.574;55.878;2022-07-06T04:15:14;99549.03;;;21.68;54.52
60089;BME280;45961;53.574;55.878;2022-07-06T04:16:15;99546.88;;;21.76;54.14
60089;BME280;45961;53.574;55.878;2022-07-06T04:17:16;99547.50;;;21.62;54.41
60089;BME280;45961;53.574;55.878;2022-07-06T04:18:36;99542.72;;;21.71;54.34
60089;BME280;45961;53.574;55.878;2022-07-06T04:19:38;99537.63;;;21.67;54.16
60089;BME280;45961;53.574;55.878;2022-07-06T04:20:39;99542.91;;;21.67;54.58
60089;BME280;45961;53.574;55.878;2022-07-06T04:21:40;99538.34;;;21.52;54.21
60089;BME280;45961;53.574;55.878;2022-07-06T04:22:43;99530.19;;;21.39;53.15
60089;BME280;45961;53.574;55.878;2022-07-06T04:23:44;99553.00;;;21.58;53.55
60089;BME280;45961;53.574;55.878;2022-07-06T04:24:48;99524.59;;;21.27;52.94
60089;BME280;45961;53.574;55.878;2022-07-06T04:25:50;99543.06;;;21.25;53.38
60089;BME280;45961;53.574;55.878;2022-07-06T04:26:51;99547.75;;;21.39;53.79
60089;BME280;45961;53.574;55.878;2022-07-06T04:27:52;99544.28;;;21.18;53.62
60089;BME280;45961;53.574;55.878;2022-07-06T04:28:53;99536.66;;;21.12;54.36
60089;BME280;45961;53.574;55.878;2022-07-06T04:29:54;99548.38;;;21.05;53.71
60089;BME280;45961;53.574;55.878;2022-07-06T04:30:56;99550.94;;;21.06;54.29
60089;BME280;45961;53.574;55.878;2022-07-06T04:31:58;99540.06;;;20.95;53.88
60089;BME280;45961;53.574;55.878;2022-07-06T04:32:59;99550.91;;;20.87;54.32
60089;BME280;45961;53.574;55.878;2022-07-06T04:34:03;99542.81;;;20.92;55.67
60089;BME280;45961;53.574;55.878;2022-07-06T04:35:05;99555.16;;;20.90;55.60
60089;BME280;45961;53.574;55.878;2022-07-06T04:36:06;99538.84;;;21.02;56.24
60089;BME280;45961;53.574;55.878;2022-07-06T04:37:13;99541.56;;;21.01;55.40
60089;BME280;45961;53.574;55.878;2022-07-06T04:38:14;99540.06;;;20.95;56.09
60089;BME280;45961;53.574;55.878;2022-07-06T04:39:16;99542.28;;;21.04;55.92
60089;BME280;45961;53.574;55.878;2022-07-06T04:40:17;99545.84;;;21.03;56.78
60089;BME280;45961;53.574;55.878;2022-07-06T04:41:18;99543.13;;;21.05;57.09
60089;BME280;45961;53.574;55.878;2022-07-06T04:42:19;99560.06;;;20.99;56.37
60089;BME280;45961;53.574;55.878;2022-07-06T04:43:21;99543.53;;;20.95;56.46
60089;BME280;45961;53.574;55.878;2022-07-06T04:44:22;99539.28;;;20.52;55.74
60089;BME280;45961;53.574;55.878;2022-07-06T04:45:23;99543.19;;;20.42;55.94
60089;BME280;45961;53.574;55.878;2022-07-06T04:46:24;99541.13;;;20.28;55.84
60089;BME280;45961;53.574;55.878;2022-07-06T04:47:27;99529.03;;;20.24;55.65
60089;BME280;45961;53.574;55.878;2022-07-06T04:48:28;99542.47;;;20.38;56.27
60089;BME280;45961;53.574;55.878;2022-07-06T04:49:29;99543.25;;;20.40;56.56
60089;BME280;45961;53.574;55.878;2022-07-06T04:50:30;99543.16;;;20.21;56.72
60089;BME280;45961;53.574;55.878;2022-07-06T04:51:36;99535.16;;;20.45;57.38
60089;BME280;45961;53.574;55.878;2022-07-06T04:52:38;99553.47;;;20.68;57.39
60089;BME280;45961;53.574;55.878;2022-07-06T04:53:40;99549.34;;;20.83;57.35
60089;BME280;45961;53.574;55.878;2022-07-06T04:54:41;99547.28;;;20.69;57.61
60089;BME280;45961;53.574;55.878;2022-07-06T04:55:42;99535.34;;;20.62;58.64
60089;BME280;45961;53.574;55.878;2022-07-06T04:56:43;99552.72;;;20.66;57.76
60089;BME280;45961;53.574;55.878;2022-07-06T04:57:44;99560.44;;;20.69;57.40
60089;BME280;45961;53.574;55.878;2022-07-06T04:58:47;99555.19;;;20.69;57.04
60089;BME280;45961;53.574;55.878;2022-07-06T04:59:52;99531.41;;;20.52;57.54
60089;BME280;45961;53.574;55.878;2022-07-06T05:00:53;99565.38;;;20.57;57.71
60089;BME280;45961;53.574;55.878;2022-07-06T05:01:56;99576.09;;;20.52;57.64
60089;BME280;45961;53.574;55.878;2022-07-06T05:02:57;99549.31;;;20.42;57.69
60089;BME280;45961;53.574;55.878;2022-07-06T05:04:01;99550.53;;;20.34;57.48
60089;BME280;45961;53.574;55.878;2022-07-06T05:05:02;99559.28;;;20.34;57.09
60089;BME280;45961;53.574;55.878;2022-07-06T05:06:04;99557.72;;;20.08;56.85
60089;BME280;45961;53.574;55.878;2022-07-06T05:07:06;99560.13;;;20.14;57.16
60089;BME280;45961;53.574;55.878;2022-07-06T05:08:07;99553.13;;;20.13;57.74
60089;BME280;45961;53.574;55.878;2022-07-06T05:09:09;99543.72;;;20.08;57.88
60089;BME280;45961;53.574;55.878;2022-07-06T05:10:11;99555.91;;;20.10;58.01
60089;BME280;45961;53.574;55.878;2022-07-06T05:11:15;99550.69;;;20.09;58.62
60089;BME280;45961;53.574;55.878;2022-07-06T05:12:16;99541.53;;;20.19;58.63
60089;BME280;45961;53.574;55.878;2022-07-06T05:13:18;99552.94;;;20.18;58.76
60089;BME280;45961;53.574;55.878;2022-07-06T05:14:20;99553.94;;;20.15;58.40
60089;BME280;45961;53.574;55.878;2022-07-06T05:15:21;99539.22;;;20.11;58.75
60089;BME280;45961;53.574;55.878;2022-07-06T05:16:22;99545.56;;;20.06;58.81
60089;BME280;45961;53.574;55.878;2022-07-06T05:17:23;99549.84;;;20.08;59.46
60089;BME280;45961;53.574;55.878;2022-07-06T05:18:24;99529.44;;;19.93;59.99
60089;BME280;45961;53.574;55.878;2022-07-06T05:19:25;99520.66;;;19.94;60.71
60089;BME280;45961;53.574;55.878;2022-07-06T05:20:27;99538.72;;;20.02;61.08
60089;BME280;45961;53.574;55.878;2022-07-06T05:21:28;99538.13;;;19.95;60.55
60089;BME280;45961;53.574;55.878;2022-07-06T05:22:30;99539.94;;;19.93;61.66
60089;BME280;45961;53.574;55.878;2022-07-06T05:23:31;99545.16;;;19.94;61.84
60089;BME280;45961;53.574;55.878;2022-07-06T05:24:33;99545.47;;;19.87;62.36